sensor_id;sensor_type;location;lat;lon;timestamp;temperature;humidity
5731;DHT22;2890;51.950;7.668;2022-10-03T00:01:57;10.10;99.90
5731;DHT22;2890;51.950;7.668;2022-10-03T00:04:44;10.10;99.90
5731;DHT22;2890;51.950;7.668;2022-10-03T00:07:29;10.10;99.90
5731;DHT22;2890;51.950;7.668;2022-10-03T00:10:12;10.00;99.90
5731;DHT22;2890;51.950;7.668;2022-10-03T00:13:02;10.00;99.90
5731;DHT22;2890;51.950;7.668;2022-10-03T00:15:36;10.00;99.90
5731;DHT22;2890;51.950;7.668;2022-10-03T00:18:15;10.00;99.90
5731;DHT22;2890;51.950;7.668;2022-10-03T00:20:59;10.00;99.90
5731;DHT22;2890;51.950;7.668;2022-10-03T00:23:37;10.00;99.90
5731;DHT22;2890;51.950;7.668;2022-10-03T00:26:10;9.90;99.90
5731;DHT22;2890;51.950;7.668;2022-10-03T00:29:25;9.90;99.90
5731;DHT22;2890;51.950;7.668;2022-10-03T00:32:03;9.90;99.90
5731;DHT22;2890;51.950;7.668;2022-10-03T00:34:42;9.90;99.90
5731;DHT22;2890;51.950;7.668;2022-10-03T00:37:25;9.90;99.90
5731;DHT22;2890;51.950;7.668;2022-10-03T00:46:23;9.90;99.90
5731;DHT22;2890;51.950;7.668;2022-10-03T00:52:05;9.80;99.90
5731;DHT22;2890;51.950;7.668;2022-10-03T00:54:47;9.80;99.90
5731;DHT22;2890;51.950;7.668;2022-10-03T00:57:31;9.80;99.90
5731;DHT22;2890;51.950;7.668;2022-10-03T01:00:12;9.90;99.90
5731;DHT22;2890;51.950;7.668;2022-10-03T01:02:47;9.90;99.90
5731;DHT22;2890;51.950;7.668;2022-10-03T01:05:22;9.80;99.90
5731;DHT22;2890;51.950;7.668;2022-10-03T01:08:19;9.80;99.90
5731;DHT22;2890;51.950;7.668;2022-10-03T01:10:53;9.80;99.90
5731;DHT22;2890;51.950;7.668;2022-10-03T01:13:33;9.80;99.90
5731;DHT22;2890;51.950;7.668;2022-10-03T01:16:11;9.80;99.90
5731;DHT22;2890;51.950;7.668;2022-10-03T01:18:54;9.70;99.90
5731;DHT22;2890;51.950;7.668;2022-10-03T01:21:32;9.70;99.90
5731;DHT22;2890;51.950;7.668;2022-10-03T01:27:04;9.70;99.90
5731;DHT22;2890;51.950;7.668;2022-10-03T01:29:42;9.70;99.90
5731;DHT22;2890;51.950;7.668;2022-10-03T01:32:32;9.70;99.90
5731;DHT22;2890;51.950;7.668;2022-10-03T01:35:09;9.70;99.90
5731;DHT22;2890;51.950;7.668;2022-10-03T01:37:42;9.70;99.90
5731;DHT22;2890;51.950;7.668;2022-10-03T01:40:20;9.70;99.90
5731;DHT22;2890;51.950;7.668;2022-10-03T01:42:59;9.70;99.90
5731;DHT22;2890;51.950;7.668;2022-10-03T01:45:41;9.70;99.90
5731;DHT22;2890;51.950;7.668;2022-10-03T01:48:29;9.70;99.90
5731;DHT22;2890;51.950;7.668;2022-10-03T01:51:00;9.60;99.90
5731;DHT22;2890;51.950;7.668;2022-10-03T01:53:37;9.70;99.90
5731;DHT22;2890;51.950;7.668;2022-10-03T01:56:11;9.60;99.90
5731;DHT22;2890;51.950;7.668;2022-10-03T01:58:49;9.60;99.90
5731;DHT22;2890;51.950;7.668;2022-10-03T02:01:28;9.60;99.90
5731;DHT22;2890;51.950;7.668;2022-10-03T02:04:04;9.60;99.90
5731;DHT22;2890;51.950;7.668;2022-10-03T02:06:41;9.60;99.90
5731;DHT22;2890;51.950;7.668;2022-10-03T02:09:19;9.60;99.90
5731;DHT22;2890;51.950;7.668;2022-10-03T02:11:59;9.50;99.90
5731;DHT22;2890;51.950;7.668;2022-10-03T02:14:33;9.60;99.90
5731;DHT22;2890;51.950;7.668;2022-10-03T02:17:05;9.50;99.90
5731;DHT22;2890;51.950;7.668;2022-10-03T02:19:41;9.50;99.90
5731;DHT22;2890;51.950;7.668;2022-10-03T02:22:14;9.50;99.90
5731;DHT22;2890;51.950;7.668;2022-10-03T02:24:48;9.50;99.90
5731;DHT22;2890;51.950;7.668;2022-10-03T02:27:38;9.50;99.90
5731;DHT22;2890;51.950;7.668;2022-10-03T02:30:15;9.50;99.90
5731;DHT22;2890;51.950;7.668;2022-10-03T02:33:19;9.50;99.90
5731;DHT22;2890;51.950;7.668;2022-10-03T02:35:55;9.50;99.90
5731;DHT22;2890;51.950;7.668;2022-10-03T02:42:13;9.50;99.90
5731;DHT22;2890;51.950;7.668;2022-10-03T02:45:23;9.40;99.90
5731;DHT22;2890;51.950;7.668;2022-10-03T02:48:15;9.50;99.90
5731;DHT22;2890;51.950;7.668;2022-10-03T02:57:53;9.40;99.90
5731;DHT22;2890;51.950;7.668;2022-10-03T03:00:35;9.40;99.90
5731;DHT22;2890;51.950;7.668;2022-10-03T03:03:33;9.40;99.90
5731;DHT22;2890;51.950;7.668;2022-10-03T03:09:36;9.40;99.90
5731;DHT22;2890;51.950;7.668;2022-10-03T03:15:53;9.40;99.90
5731;DHT22;2890;51.950;7.668;2022-10-03T03:18:31;9.30;99.90
5731;DHT22;2890;51.950;7.668;2022-10-03T03:21:10;9.40;99.90
5731;DHT22;2890;51.950;7.668;2022-10-03T03:23:56;9.30;99.90
5731;DHT22;2890;51.950;7.668;2022-10-03T03:29:28;9.40;99.90
5731;DHT22;2890;51.950;7.668;2022-10-03T03:32:01;9.30;99.90
5731;DHT22;2890;51.950;7.668;2022-10-03T03:34:34;9.30;99.90
5731;DHT22;2890;51.950;7.668;2022-10-03T03:37:11;9.20;99.90
5731;DHT22;2890;51.950;7.668;2022-10-03T03:39:50;9.20;99.90
5731;DHT22;2890;51.950;7.668;2022-10-03T03:42:43;9.20;99.90
5731;DHT22;2890;51.950;7.668;2022-10-03T03:45:30;9.10;99.90
5731;DHT22;2890;51.950;7.668;2022-10-03T03:48:21;9.10;99.90
5731;DHT22;2890;51.950;7.668;2022-10-03T03:51:09;9.10;99.90
5731;DHT22;2890;51.950;7.668;2022-10-03T03:54:00;9.10;99.90
5731;DHT22;2890;51.950;7.668;2022-10-03T03:56:50;9.10;99.90
5731;DHT22;2890;51.950;7.668;2022-10-03T03:59:37;9.00;99.90
5731;DHT22;2890;51.950;7.668;2022-10-03T04:02:16;9.00;99.90
5731;DHT22;2890;51.950;7.668;2022-10-03T04:04:55;9.10;99.90
5731;DHT22;2890;51.950;7.668;2022-10-03T04:07:33;9.00;99.90
5731;DHT22;2890;51.950;7.668;2022-10-03T04:10:15;9.00;99.90
5731;DHT22;2890;51.950;7.668;2022-10-03T04:12:57;9.00;99.90
5731;DHT22;2890;51.950;7.668;2022-10-03T04:15:48;9.00;99.90
5731;DHT22;2890;51.950;7.668;2022-10-03T04:18:27;9.00;99.90
5731;DHT22;2890;51.950;7.668;2022-10-03T04:21:28;8.90;99.90
5731;DHT22;2890;51.950;7.668;2022-10-03T04:24:14;8.90;99.90
5731;DHT22;2890;51.950;7.668;2022-10-03T04:27:03;9.00;99.90
5731;DHT22;2890;51.950;7.668;2022-10-03T04:29:42;8.90;99.90
5731;DHT22;2890;51.950;7.668;2022-10-03T04:38:10;8.90;99.90
5731;DHT22;2890;51.950;7.668;2022-10-03T04:40:46;8.90;99.90
5731;DHT22;2890;51.950;7.668;2022-10-03T04:43:19;8.90;99.90
5731;DHT22;2890;51.950;7.668;2022-10-03T04:46:03;8.80;99.90
5731;DHT22;2890;51.950;7.668;2022-10-03T04:48:38;8.90;99.90
5731;DHT22;2890;51.950;7.668;2022-10-03T04:51:14;8.80;99.90
5731;DHT22;2890;51.950;7.668;2022-10-03T04:53:49;8.80;99.90
5731;DHT22;2890;51.950;7.668;2022-10-03T04:56:28;8.80;99.90
5731;DHT22;2890;51.950;7.668;2022-10-03T04:59:03;8.80;99.90
5731;DHT22;2890;51.950;7.668;2022-10-03T05:01:44;8.80;99.90
5731;DHT22;2890;51.950;7.668;2022-10-03T05:04:18;8.80;99.90
5731;DHT22;2890;51.950;7.668;2022-10-03T05:07:00;8.80;99.90
5731;DHT22;2890;51.950;7.668;2022-10-03T05:09:38;8.80;99.90
5731;DHT22;2890;51.950;7.668;2022-10-03T05:12:12;8.70;99.90
5731;DHT22;2890;51.950;7.668;2022-10-03T05:14:56;8.80;99.90
5731;DHT22;2890;51.950;7.668;2022-10-03T05:17:35;8.80;99.90
5731;DHT22;2890;51.950;7.668;2022-10-03T05:22:55;8.80;99.90
5731;DHT22;2890;51.950;7.668;2022-10-03T05:25:32;8.80;99.90
5731;DHT22;2890;51.950;7.668;2022-10-03T05:28:06;8.70;99.90
5731;DHT22;2890;51.950;7.668;2022-10-03T05:30:43;8.70;99.90
5731;DHT22;2890;51.950;7.668;2022-10-03T05:33:23;8.80;99.90
5731;DHT22;2890;51.950;7.668;2022-10-03T05:36:05;8.80;99.90
5731;DHT22;2890;51.950;7.668;2022-10-03T05:39:00;8.70;99.90
5731;DHT22;2890;51.950;7.668;2022-10-03T05:41:30;8.70;99.90
5731;DHT22;2890;51.950;7.668;2022-10-03T05:44:06;8.80;99.90
5731;DHT22;2890;51.950;7.668;2022-10-03T05:46:47;8.80;99.90
5731;DHT22;2890;51.950;7.668;2022-10-03T05:49:48;8.80;99.90
5731;DHT22;2890;51.950;7.668;2022-10-03T05:52:45;8.80;99.90
5731;DHT22;2890;51.950;7.668;2022-10-03T05:55:43;8.80;99.90
5731;DHT22;2890;51.950;7.668;2022-10-03T06:04:46;9.00;99.90
5731;DHT22;2890;51.950;7.668;2022-10-03T06:07:26;9.10;99.90
5731;DHT22;2890;51.950;7.668;2022-10-03T06:13:09;9.10;99.90
5731;DHT22;2890;51.950;7.668;2022-10-03T06:15:47;9.20;99.90
5731;DHT22;2890;51.950;7.668;2022-10-03T06:28:24;9.60;99.90
5731;DHT22;2890;51.950;7.668;2022-10-03T06:31:30;9.80;99.90
5731;DHT22;2890;51.950;7.668;2022-10-03T06:34:29;9.80;99.90
5731;DHT22;2890;51.950;7.668;2022-10-03T06:37:19;9.90;99.90
5731;DHT22;2890;51.950;7.668;2022-10-03T06:40:22;10.00;99.90
5731;DHT22;2890;51.950;7.668;2022-10-03T06:43:14;10.10;99.90
5731;DHT22;2890;51.950;7.668;2022-10-03T07:01:07;11.30;99.90
5731;DHT22;2890;51.950;7.668;2022-10-03T07:04:12;11.80;99.90
5731;DHT22;2890;51.950;7.668;2022-10-03T07:07:36;12.50;99.90
5731;DHT22;2890;51.950;7.668;2022-10-03T07:10:30;13.80;99.90
5731;DHT22;2890;51.950;7.668;2022-10-03T07:16:37;16.60;99.90
5731;DHT22;2890;51.950;7.668;2022-10-03T07:25:36;19.60;95.40
5731;DHT22;2890;51.950;7.668;2022-10-03T07:31:11;20.20;90.60
5731;DHT22;2890;51.950;7.668;2022-10-03T07:34:17;20.40;89.10
5731;DHT22;2890;51.950;7.668;2022-10-03T07:37:22;20.50;86.70
5731;DHT22;2890;51.950;7.668;2022-10-03T07:40:43;21.10;83.00
5731;DHT22;2890;51.950;7.668;2022-10-03T07:43:36;21.30;80.00
5731;DHT22;2890;51.950;7.668;2022-10-03T07:46:41;21.80;76.90
5731;DHT22;2890;51.950;7.668;2022-10-03T07:49:39;22.10;74.50
5731;DHT22;2890;51.950;7.668;2022-10-03T07:55:29;23.10;67.60
5731;DHT22;2890;51.950;7.668;2022-10-03T07:58:32;23.60;64.30
5731;DHT22;2890;51.950;7.668;2022-10-03T08:01:11;24.20;60.40
5731;DHT22;2890;51.950;7.668;2022-10-03T08:04:12;24.90;53.60
5731;DHT22;2890;51.950;7.668;2022-10-03T08:06:43;25.40;45.00
5731;DHT22;2890;51.950;7.668;2022-10-03T08:09:30;26.80;32.90
5731;DHT22;2890;51.950;7.668;2022-10-03T08:15:09;28.70;14.70
5731;DHT22;2890;51.950;7.668;2022-10-03T08:18:15;28.80;14.20
5731;DHT22;2890;51.950;7.668;2022-10-03T08:20:50;29.40;9.50
5731;DHT22;2890;51.950;7.668;2022-10-03T08:23:51;30.10;5.60
5731;DHT22;2890;51.950;7.668;2022-10-03T08:26:36;30.50;2.30
5731;DHT22;2890;51.950;7.668;2022-10-03T08:29:33;30.80;1.00
5731;DHT22;2890;51.950;7.668;2022-10-03T08:32:47;31.30;1.00
5731;DHT22;2890;51.950;7.668;2022-10-03T08:35:31;31.50;1.00
5731;DHT22;2890;51.950;7.668;2022-10-03T08:38:18;31.90;1.00
5731;DHT22;2890;51.950;7.668;2022-10-03T08:44:24;31.90;1.00
5731;DHT22;2890;51.950;7.668;2022-10-03T08:47:11;31.20;1.00
5731;DHT22;2890;51.950;7.668;2022-10-03T08:53:07;30.00;1.00
5731;DHT22;2890;51.950;7.668;2022-10-03T08:55:46;29.10;1.00
5731;DHT22;2890;51.950;7.668;2022-10-03T08:58:33;28.70;3.20
5731;DHT22;2890;51.950;7.668;2022-10-03T09:01:21;28.90;3.00
5731;DHT22;2890;51.950;7.668;2022-10-03T09:04:28;29.10;3.00
5731;DHT22;2890;51.950;7.668;2022-10-03T10:01:21;30.90;1.00
5731;DHT22;2890;51.950;7.668;2022-10-03T10:04:19;30.30;1.00
5731;DHT22;2890;51.950;7.668;2022-10-03T10:07:23;29.50;1.00
5731;DHT22;2890;51.950;7.668;2022-10-03T10:13:21;28.40;1.00
5731;DHT22;2890;51.950;7.668;2022-10-03T10:16:26;28.50;1.00
5731;DHT22;2890;51.950;7.668;2022-10-03T10:19:14;28.10;1.00
5731;DHT22;2890;51.950;7.668;2022-10-03T10:22:18;26.90;1.00
5731;DHT22;2890;51.950;7.668;2022-10-03T10:28:20;25.30;9.40
5731;DHT22;2890;51.950;7.668;2022-10-03T10:37:28;24.70;11.70
5731;DHT22;2890;51.950;7.668;2022-10-03T10:40:28;24.50;13.60
5731;DHT22;2890;51.950;7.668;2022-10-03T10:46:59;25.30;13.30
5731;DHT22;2890;51.950;7.668;2022-10-03T10:52:49;26.50;8.40
5731;DHT22;2890;51.950;7.668;2022-10-03T10:56:12;26.80;5.00
5731;DHT22;2890;51.950;7.668;2022-10-03T10:59:13;26.80;4.80
5731;DHT22;2890;51.950;7.668;2022-10-03T11:08:37;24.20;7.70
5731;DHT22;2890;51.950;7.668;2022-10-03T11:11:47;24.10;10.70
5731;DHT22;2890;51.950;7.668;2022-10-03T11:14:46;23.90;13.60
5731;DHT22;2890;51.950;7.668;2022-10-03T11:21:07;23.60;16.20
5731;DHT22;2890;51.950;7.668;2022-10-03T11:23:59;23.70;18.40
5731;DHT22;2890;51.950;7.668;2022-10-03T11:30:06;23.60;14.40
5731;DHT22;2890;51.950;7.668;2022-10-03T11:36:12;23.30;14.90
5731;DHT22;2890;51.950;7.668;2022-10-03T11:38:55;23.30;17.10
5731;DHT22;2890;51.950;7.668;2022-10-03T11:41:32;23.20;15.50
5731;DHT22;2890;51.950;7.668;2022-10-03T11:44:14;23.10;17.30
5731;DHT22;2890;51.950;7.668;2022-10-03T11:46:54;23.00;17.30
5731;DHT22;2890;51.950;7.668;2022-10-03T11:49:51;22.90;18.40
5731;DHT22;2890;51.950;7.668;2022-10-03T11:52:27;22.80;18.50
5731;DHT22;2890;51.950;7.668;2022-10-03T11:55:08;23.00;18.70
5731;DHT22;2890;51.950;7.668;2022-10-03T11:57:50;23.20;16.40
5731;DHT22;2890;51.950;7.668;2022-10-03T12:00:20;23.00;13.20
5731;DHT22;2890;51.950;7.668;2022-10-03T12:03:14;22.90;13.40
5731;DHT22;2890;51.950;7.668;2022-10-03T12:05:51;23.00;16.80
5731;DHT22;2890;51.950;7.668;2022-10-03T12:08:41;22.80;18.00
5731;DHT22;2890;51.950;7.668;2022-10-03T12:11:23;23.00;18.80
5731;DHT22;2890;51.950;7.668;2022-10-03T12:17:00;23.00;19.60
5731;DHT22;2890;51.950;7.668;2022-10-03T12:19:33;22.90;18.50
5731;DHT22;2890;51.950;7.668;2022-10-03T12:22:08;22.80;18.90
5731;DHT22;2890;51.950;7.668;2022-10-03T12:24:40;22.70;19.30
5731;DHT22;2890;51.950;7.668;2022-10-03T12:27:17;22.60;21.20
5731;DHT22;2890;51.950;7.668;2022-10-03T12:29:54;22.50;20.80
5731;DHT22;2890;51.950;7.668;2022-10-03T12:32:31;22.50;21.90
5731;DHT22;2890;51.950;7.668;2022-10-03T12:35:09;22.10;22.30
5731;DHT22;2890;51.950;7.668;2022-10-03T12:38:01;22.00;22.10
5731;DHT22;2890;51.950;7.668;2022-10-03T12:40:33;22.00;20.60
5731;DHT22;2890;51.950;7.668;2022-10-03T12:43:14;21.80;21.70
5731;DHT22;2890;51.950;7.668;2022-10-03T12:45:48;21.70;22.00
5731;DHT22;2890;51.950;7.668;2022-10-03T12:48:33;21.60;23.00
5731;DHT22;2890;51.950;7.668;2022-10-03T12:51:13;21.70;23.30
5731;DHT22;2890;51.950;7.668;2022-10-03T12:53:51;21.90;23.00
5731;DHT22;2890;51.950;7.668;2022-10-03T12:56:28;21.90;21.60
5731;DHT22;2890;51.950;7.668;2022-10-03T12:59:13;22.10;22.00
5731;DHT22;2890;51.950;7.668;2022-10-03T13:01:59;22.20;22.00
5731;DHT22;2890;51.950;7.668;2022-10-03T13:04:36;22.30;22.40
5731;DHT22;2890;51.950;7.668;2022-10-03T13:07:19;22.40;20.20
5731;DHT22;2890;51.950;7.668;2022-10-03T13:09:58;22.20;19.40
5731;DHT22;2890;51.950;7.668;2022-10-03T13:12:34;22.20;21.40
5731;DHT22;2890;51.950;7.668;2022-10-03T13:18:28;22.10;21.00
5731;DHT22;2890;51.950;7.668;2022-10-03T13:21:05;21.90;22.90
5731;DHT22;2890;51.950;7.668;2022-10-03T13:23:41;21.90;23.80
5731;DHT22;2890;51.950;7.668;2022-10-03T13:26:15;21.80;24.40
5731;DHT22;2890;51.950;7.668;2022-10-03T13:29:07;21.60;24.50
5731;DHT22;2890;51.950;7.668;2022-10-03T13:31:48;21.50;25.60
5731;DHT22;2890;51.950;7.668;2022-10-03T13:34:23;21.40;24.60
5731;DHT22;2890;51.950;7.668;2022-10-03T13:36:56;21.40;25.20
5731;DHT22;2890;51.950;7.668;2022-10-03T13:39:26;21.50;24.30
5731;DHT22;2890;51.950;7.668;2022-10-03T13:42:10;21.40;25.40
5731;DHT22;2890;51.950;7.668;2022-10-03T13:44:40;21.40;26.30
5731;DHT22;2890;51.950;7.668;2022-10-03T13:49:59;21.40;27.50
5731;DHT22;2890;51.950;7.668;2022-10-03T13:52:35;21.40;27.60
5731;DHT22;2890;51.950;7.668;2022-10-03T13:55:17;21.20;27.20
5731;DHT22;2890;51.950;7.668;2022-10-03T13:58:07;21.00;29.30
5731;DHT22;2890;51.950;7.668;2022-10-03T14:00:48;20.90;29.60
5731;DHT22;2890;51.950;7.668;2022-10-03T14:03:23;20.60;30.40
5731;DHT22;2890;51.950;7.668;2022-10-03T14:06:02;20.40;33.60
5731;DHT22;2890;51.950;7.668;2022-10-03T14:08:48;20.20;36.80
5731;DHT22;2890;51.950;7.668;2022-10-03T14:11:31;20.10;38.60
5731;DHT22;2890;51.950;7.668;2022-10-03T14:14:21;19.90;40.90
5731;DHT22;2890;51.950;7.668;2022-10-03T14:16:58;19.90;42.20
5731;DHT22;2890;51.950;7.668;2022-10-03T14:19:33;19.80;42.00
5731;DHT22;2890;51.950;7.668;2022-10-03T14:22:19;19.80;41.70
5731;DHT22;2890;51.950;7.668;2022-10-03T14:27:52;20.00;40.70
5731;DHT22;2890;51.950;7.668;2022-10-03T14:30:21;20.00;41.20
5731;DHT22;2890;51.950;7.668;2022-10-03T14:33:05;20.00;39.50
5731;DHT22;2890;51.950;7.668;2022-10-03T14:35:40;20.00;39.10
5731;DHT22;2890;51.950;7.668;2022-10-03T14:38:21;19.80;39.80
5731;DHT22;2890;51.950;7.668;2022-10-03T14:41:17;19.80;43.40
5731;DHT22;2890;51.950;7.668;2022-10-03T14:43:49;19.70;42.80
5731;DHT22;2890;51.950;7.668;2022-10-03T14:46:18;19.70;43.40
5731;DHT22;2890;51.950;7.668;2022-10-03T14:48:48;19.60;44.30
5731;DHT22;2890;51.950;7.668;2022-10-03T14:51:18;19.60;45.10
5731;DHT22;2890;51.950;7.668;2022-10-03T14:53:52;19.60;45.70
5731;DHT22;2890;51.950;7.668;2022-10-03T14:56:22;19.50;44.90
5731;DHT22;2890;51.950;7.668;2022-10-03T14:58:52;19.40;44.70
5731;DHT22;2890;51.950;7.668;2022-10-03T15:01:22;19.30;45.00
5731;DHT22;2890;51.950;7.668;2022-10-03T15:03:57;19.30;46.00
5731;DHT22;2890;51.950;7.668;2022-10-03T15:06:33;19.30;46.00
5731;DHT22;2890;51.950;7.668;2022-10-03T15:09:04;19.40;47.30
5731;DHT22;2890;51.950;7.668;2022-10-03T15:11:35;19.30;44.90
5731;DHT22;2890;51.950;7.668;2022-10-03T15:14:04;19.20;46.90
5731;DHT22;2890;51.950;7.668;2022-10-03T15:16:39;19.10;48.40
5731;DHT22;2890;51.950;7.668;2022-10-03T15:19:14;19.00;49.00
5731;DHT22;2890;51.950;7.668;2022-10-03T15:21:43;19.00;49.30
5731;DHT22;2890;51.950;7.668;2022-10-03T15:24:18;19.00;49.40
5731;DHT22;2890;51.950;7.668;2022-10-03T15:26:50;18.90;47.90
5731;DHT22;2890;51.950;7.668;2022-10-03T15:29:19;18.80;48.60
5731;DHT22;2890;51.950;7.668;2022-10-03T15:31:48;18.80;52.80
5731;DHT22;2890;51.950;7.668;2022-10-03T15:34:18;18.70;53.10
5731;DHT22;2890;51.950;7.668;2022-10-03T15:36:48;18.60;54.70
5731;DHT22;2890;51.950;7.668;2022-10-03T15:39:21;18.50;56.70
5731;DHT22;2890;51.950;7.668;2022-10-03T15:41:52;18.50;57.30
5731;DHT22;2890;51.950;7.668;2022-10-03T15:44:23;18.40;60.00
5731;DHT22;2890;51.950;7.668;2022-10-03T15:46:58;18.40;60.40
5731;DHT22;2890;51.950;7.668;2022-10-03T15:49:32;18.30;60.50
5731;DHT22;2890;51.950;7.668;2022-10-03T15:52:09;18.20;60.80
5731;DHT22;2890;51.950;7.668;2022-10-03T15:54:45;18.20;61.00
5731;DHT22;2890;51.950;7.668;2022-10-03T15:57:17;18.10;61.80
5731;DHT22;2890;51.950;7.668;2022-10-03T15:59:50;18.00;61.80
5731;DHT22;2890;51.950;7.668;2022-10-03T16:02:22;17.90;62.30
5731;DHT22;2890;51.950;7.668;2022-10-03T16:04:54;17.90;63.00
5731;DHT22;2890;51.950;7.668;2022-10-03T16:07:28;17.80;64.20
5731;DHT22;2890;51.950;7.668;2022-10-03T16:10:10;17.60;64.40
5731;DHT22;2890;51.950;7.668;2022-10-03T16:12:51;17.60;65.70
5731;DHT22;2890;51.950;7.668;2022-10-03T16:15:24;17.50;67.00
5731;DHT22;2890;51.950;7.668;2022-10-03T16:17:55;17.40;68.00
5731;DHT22;2890;51.950;7.668;2022-10-03T16:20:28;17.30;69.10
5731;DHT22;2890;51.950;7.668;2022-10-03T16:22:58;17.20;69.80
5731;DHT22;2890;51.950;7.668;2022-10-03T16:25:39;17.10;71.10
5731;DHT22;2890;51.950;7.668;2022-10-03T16:28:13;17.00;71.40
5731;DHT22;2890;51.950;7.668;2022-10-03T16:30:44;16.90;72.10
5731;DHT22;2890;51.950;7.668;2022-10-03T16:33:16;16.80;72.30
5731;DHT22;2890;51.950;7.668;2022-10-03T16:35:46;16.80;72.90
5731;DHT22;2890;51.950;7.668;2022-10-03T16:38:19;16.70;73.60
5731;DHT22;2890;51.950;7.668;2022-10-03T16:40:55;16.60;74.30
5731;DHT22;2890;51.950;7.668;2022-10-03T16:43:23;16.50;76.20
5731;DHT22;2890;51.950;7.668;2022-10-03T16:45:51;16.40;77.40
5731;DHT22;2890;51.950;7.668;2022-10-03T16:48:22;16.30;79.20
5731;DHT22;2890;51.950;7.668;2022-10-03T16:51:17;16.20;80.00
5731;DHT22;2890;51.950;7.668;2022-10-03T16:53:47;16.10;82.40
5731;DHT22;2890;51.950;7.668;2022-10-03T16:56:19;16.00;83.90
5731;DHT22;2890;51.950;7.668;2022-10-03T16:58:50;16.00;85.70
5731;DHT22;2890;51.950;7.668;2022-10-03T17:01:29;15.80;86.50
5731;DHT22;2890;51.950;7.668;2022-10-03T17:04:10;15.70;88.30
5731;DHT22;2890;51.950;7.668;2022-10-03T17:06:44;15.70;90.20
5731;DHT22;2890;51.950;7.668;2022-10-03T17:09:24;15.60;91.00
5731;DHT22;2890;51.950;7.668;2022-10-03T17:11:56;15.40;91.60
5731;DHT22;2890;51.950;7.668;2022-10-03T17:14:26;15.30;92.80
5731;DHT22;2890;51.950;7.668;2022-10-03T17:17:01;15.30;93.60
5731;DHT22;2890;51.950;7.668;2022-10-03T17:19:33;15.20;94.30
5731;DHT22;2890;51.950;7.668;2022-10-03T17:22:09;15.10;94.80
5731;DHT22;2890;51.950;7.668;2022-10-03T17:24:44;15.00;95.20
5731;DHT22;2890;51.950;7.668;2022-10-03T17:27:22;15.00;96.40
5731;DHT22;2890;51.950;7.668;2022-10-03T17:29:56;14.90;97.60
5731;DHT22;2890;51.950;7.668;2022-10-03T17:32:27;14.80;98.60
5731;DHT22;2890;51.950;7.668;2022-10-03T17:35:01;14.80;99.50
5731;DHT22;2890;51.950;7.668;2022-10-03T17:38:00;14.70;99.80
5731;DHT22;2890;51.950;7.668;2022-10-03T17:40:47;14.60;99.90
5731;DHT22;2890;51.950;7.668;2022-10-03T17:43:22;14.60;99.90
5731;DHT22;2890;51.950;7.668;2022-10-03T17:46:01;14.50;99.90
5731;DHT22;2890;51.950;7.668;2022-10-03T17:48:36;14.50;99.90
5731;DHT22;2890;51.950;7.668;2022-10-03T17:51:29;14.30;99.90
5731;DHT22;2890;51.950;7.668;2022-10-03T17:54:00;14.20;99.90
5731;DHT22;2890;51.950;7.668;2022-10-03T17:56:30;14.20;99.90
5731;DHT22;2890;51.950;7.668;2022-10-03T17:59:03;14.10;99.90
5731;DHT22;2890;51.950;7.668;2022-10-03T18:01:34;14.00;99.90
5731;DHT22;2890;51.950;7.668;2022-10-03T18:04:04;13.90;99.90
5731;DHT22;2890;51.950;7.668;2022-10-03T18:06:37;13.80;99.90
5731;DHT22;2890;51.950;7.668;2022-10-03T18:09:20;13.70;99.90
5731;DHT22;2890;51.950;7.668;2022-10-03T18:11:49;13.70;99.90
5731;DHT22;2890;51.950;7.668;2022-10-03T18:14:29;13.60;99.90
5731;DHT22;2890;51.950;7.668;2022-10-03T18:17:04;13.60;99.90
5731;DHT22;2890;51.950;7.668;2022-10-03T18:19:53;13.60;99.90
5731;DHT22;2890;51.950;7.668;2022-10-03T18:22:27;13.60;99.90
5731;DHT22;2890;51.950;7.668;2022-10-03T18:24:58;13.50;99.90
5731;DHT22;2890;51.950;7.668;2022-10-03T18:28:05;13.50;99.90
5731;DHT22;2890;51.950;7.668;2022-10-03T18:30:44;13.40;99.90
5731;DHT22;2890;51.950;7.668;2022-10-03T18:33:14;13.40;99.90
5731;DHT22;2890;51.950;7.668;2022-10-03T18:35:44;13.40;99.90
5731;DHT22;2890;51.950;7.668;2022-10-03T18:38:17;13.40;99.90
5731;DHT22;2890;51.950;7.668;2022-10-03T18:40:48;13.40;99.90
5731;DHT22;2890;51.950;7.668;2022-10-03T18:43:27;13.40;99.90
5731;DHT22;2890;51.950;7.668;2022-10-03T18:46:01;13.30;99.90
5731;DHT22;2890;51.950;7.668;2022-10-03T18:48:36;13.20;99.90
5731;DHT22;2890;51.950;7.668;2022-10-03T18:51:13;13.20;99.90
5731;DHT22;2890;51.950;7.668;2022-10-03T18:53:45;13.10;99.90
5731;DHT22;2890;51.950;7.668;2022-10-03T18:56:20;13.00;99.90
5731;DHT22;2890;51.950;7.668;2022-10-03T18:59:07;13.00;99.90
5731;DHT22;2890;51.950;7.668;2022-10-03T19:01:45;12.90;99.90
5731;DHT22;2890;51.950;7.668;2022-10-03T19:04:29;12.90;99.90
5731;DHT22;2890;51.950;7.668;2022-10-03T19:07:00;12.80;99.90
5731;DHT22;2890;51.950;7.668;2022-10-03T19:09:32;12.80;99.90
5731;DHT22;2890;51.950;7.668;2022-10-03T19:12:04;12.70;99.90
5731;DHT22;2890;51.950;7.668;2022-10-03T19:14:41;12.70;99.90
5731;DHT22;2890;51.950;7.668;2022-10-03T19:17:22;12.60;99.90
5731;DHT22;2890;51.950;7.668;2022-10-03T19:19:57;12.70;99.90
5731;DHT22;2890;51.950;7.668;2022-10-03T19:22:29;12.60;99.90
5731;DHT22;2890;51.950;7.668;2022-10-03T19:24:59;12.60;99.90
5731;DHT22;2890;51.950;7.668;2022-10-03T19:27:39;12.60;99.90
5731;DHT22;2890;51.950;7.668;2022-10-03T19:30:07;12.60;99.90
5731;DHT22;2890;51.950;7.668;2022-10-03T19:32:46;12.50;99.90
5731;DHT22;2890;51.950;7.668;2022-10-03T19:35:16;12.50;99.90
5731;DHT22;2890;51.950;7.668;2022-10-03T19:37:47;12.50;99.90
5731;DHT22;2890;51.950;7.668;2022-10-03T19:40:29;12.50;99.90
5731;DHT22;2890;51.950;7.668;2022-10-03T19:43:17;12.40;99.90
5731;DHT22;2890;51.950;7.668;2022-10-03T19:45:52;12.40;99.90
5731;DHT22;2890;51.950;7.668;2022-10-03T19:48:26;12.30;99.90
5731;DHT22;2890;51.950;7.668;2022-10-03T19:50:54;12.30;99.90
5731;DHT22;2890;51.950;7.668;2022-10-03T19:53:21;12.40;99.90
5731;DHT22;2890;51.950;7.668;2022-10-03T19:55:49;12.40;99.90
5731;DHT22;2890;51.950;7.668;2022-10-03T19:58:17;12.40;99.90
5731;DHT22;2890;51.950;7.668;2022-10-03T20:00:50;12.40;99.90
5731;DHT22;2890;51.950;7.668;2022-10-03T20:03:21;12.40;99.90
5731;DHT22;2890;51.950;7.668;2022-10-03T20:05:57;12.40;99.90
5731;DHT22;2890;51.950;7.668;2022-10-03T20:08:31;12.40;99.90
5731;DHT22;2890;51.950;7.668;2022-10-03T20:11:17;12.40;99.90
5731;DHT22;2890;51.950;7.668;2022-10-03T20:13:47;12.50;99.90
5731;DHT22;2890;51.950;7.668;2022-10-03T20:16:16;12.50;99.90
5731;DHT22;2890;51.950;7.668;2022-10-03T20:18:47;12.50;99.90
5731;DHT22;2890;51.950;7.668;2022-10-03T20:21:19;12.50;99.90
5731;DHT22;2890;51.950;7.668;2022-10-03T20:23:47;12.60;99.90
5731;DHT22;2890;51.950;7.668;2022-10-03T20:26:20;12.50;99.90
5731;DHT22;2890;51.950;7.668;2022-10-03T20:29:13;12.50;99.90
5731;DHT22;2890;51.950;7.668;2022-10-03T20:31:40;12.50;99.90
5731;DHT22;2890;51.950;7.668;2022-10-03T20:34:11;12.40;99.90
5731;DHT22;2890;51.950;7.668;2022-10-03T20:36:45;12.30;99.90
5731;DHT22;2890;51.950;7.668;2022-10-03T20:39:17;12.30;99.90
5731;DHT22;2890;51.950;7.668;2022-10-03T20:41:54;12.20;99.90
5731;DHT22;2890;51.950;7.668;2022-10-03T20:44:44;12.20;99.90
5731;DHT22;2890;51.950;7.668;2022-10-03T20:47:21;12.10;99.90
5731;DHT22;2890;51.950;7.668;2022-10-03T20:49:54;12.10;99.90
5731;DHT22;2890;51.950;7.668;2022-10-03T20:52:25;12.00;99.90
5731;DHT22;2890;51.950;7.668;2022-10-03T20:54:56;12.00;99.90
5731;DHT22;2890;51.950;7.668;2022-10-03T20:57:26;12.00;99.90